sensor_id;sensor_type;location;lat;lon;timestamp;pressure;altitude;pressure_sealevel;temperature;humidity
21730;BME280;11027;51.030;13.812;2023-02-10T00:01:37;101987.00;;;-0.46;61.56
21730;BME280;11027;51.030;13.812;2023-02-10T00:04:03;101981.66;;;-0.46;61.60
21730;BME280;11027;51.030;13.812;2023-02-10T00:06:29;101981.75;;;-0.49;61.49
21730;BME280;11027;51.030;13.812;2023-02-10T00:08:58;101979.09;;;-0.49;61.56
21730;BME280;11027;51.030;13.812;2023-02-10T00:11:23;101973.06;;;-0.54;61.66
21730;BME280;11027;51.030;13.812;2023-02-10T00:14:10;101969.59;;;-0.56;61.52
21730;BME280;11027;51.030;13.812;2023-02-10T00:16:35;101969.44;;;-0.53;61.77
21730;BME280;11027;51.030;13.812;2023-02-10T00:19:00;101971.31;;;-0.55;61.70
21730;BME280;11027;51.030;13.812;2023-02-10T00:21:25;101958.88;;;-0.56;61.67
21730;BME280;11027;51.030;13.812;2023-02-10T00:23:51;101965.22;;;-0.59;61.48
21730;BME280;11027;51.030;13.812;2023-02-10T00:26:16;101969.84;;;-0.63;61.35
21730;BME280;11027;51.030;13.812;2023-02-10T00:28:41;101975.22;;;-0.63;61.59
21730;BME280;11027;51.030;13.812;2023-02-10T00:31:08;101975.22;;;-0.63;61.31
21730;BME280;11027;51.030;13.812;2023-02-10T00:33:34;101975.31;;;-0.66;61.29
21730;BME280;11027;51.030;13.812;2023-02-10T00:36:05;101978.06;;;-0.67;61.26
21730;BME280;11027;51.030;13.812;2023-02-10T00:38:31;101979.91;;;-0.69;61.14
21730;BME280;11027;51.030;13.812;2023-02-10T00:41:11;101980.94;;;-0.72;61.23
21730;BME280;11027;51.030;13.812;2023-02-10T00:43:36;101981.69;;;-0.68;61.12
21730;BME280;11027;51.030;13.812;2023-02-10T00:46:04;101984.78;;;-0.79;61.03
21730;BME280;11027;51.030;13.812;2023-02-10T00:48:29;101979.63;;;-0.84;61.23
21730;BME280;11027;51.030;13.812;2023-02-10T00:50:54;101988.66;;;-0.86;61.22
21730;BME280;11027;51.030;13.812;2023-02-10T00:53:20;102001.47;;;-0.94;61.46
21730;BME280;11027;51.030;13.812;2023-02-10T00:55:45;102000.78;;;-0.99;61.50
21730;BME280;11027;51.030;13.812;2023-02-10T00:58:10;101996.47;;;-1.04;61.67
21730;BME280;11027;51.030;13.812;2023-02-10T01:00:36;101998.09;;;-0.99;61.97
21730;BME280;11027;51.030;13.812;2023-02-10T01:03:01;101995.38;;;-0.98;61.70
21730;BME280;11027;51.030;13.812;2023-02-10T01:05:26;101993.13;;;-1.09;62.03
21730;BME280;11027;51.030;13.812;2023-02-10T01:07:51;101986.91;;;-1.09;61.90
21730;BME280;11027;51.030;13.812;2023-02-10T01:10:18;101993.13;;;-1.09;62.08
21730;BME280;11027;51.030;13.812;2023-02-10T01:12:43;101987.13;;;-1.15;62.25
21730;BME280;11027;51.030;13.812;2023-02-10T01:15:08;101984.56;;;-1.17;62.17
21730;BME280;11027;51.030;13.812;2023-02-10T01:17:33;101998.72;;;-1.15;62.03
21730;BME280;11027;51.030;13.812;2023-02-10T01:19:59;101989.00;;;-1.17;62.36
21730;BME280;11027;51.030;13.812;2023-02-10T01:22:24;101996.97;;;-1.16;62.31
21730;BME280;11027;51.030;13.812;2023-02-10T01:24:49;102002.38;;;-1.17;62.49
21730;BME280;11027;51.030;13.812;2023-02-10T01:27:15;102004.09;;;-1.15;62.35
21730;BME280;11027;51.030;13.812;2023-02-10T01:29:40;102006.63;;;-1.12;62.39
21730;BME280;11027;51.030;13.812;2023-02-10T01:32:05;101997.78;;;-1.14;62.21
21730;BME280;11027;51.030;13.812;2023-02-10T01:34:30;102002.31;;;-1.16;62.48
21730;BME280;11027;51.030;13.812;2023-02-10T01:36:56;102007.69;;;-1.16;62.24
21730;BME280;11027;51.030;13.812;2023-02-10T01:39:21;102014.88;;;-1.18;62.18
21730;BME280;11027;51.030;13.812;2023-02-10T01:41:46;102007.00;;;-1.21;62.34
21730;BME280;11027;51.030;13.812;2023-02-10T01:46:46;102008.06;;;-1.25;62.33
21730;BME280;11027;51.030;13.812;2023-02-10T01:49:18;102016.13;;;-1.27;62.43
21730;BME280;11027;51.030;13.812;2023-02-10T01:51:53;102008.41;;;-1.34;62.57
21730;BME280;11027;51.030;13.812;2023-02-10T01:54:24;102008.50;;;-1.37;62.75
21730;BME280;11027;51.030;13.812;2023-02-10T01:56:50;102006.88;;;-1.42;62.65
21730;BME280;11027;51.030;13.812;2023-02-10T01:59:17;102015.94;;;-1.46;62.78
21730;BME280;11027;51.030;13.812;2023-02-10T02:01:44;102003.63;;;-1.50;62.85
21730;BME280;11027;51.030;13.812;2023-02-10T02:04:10;101998.28;;;-1.50;62.74
21730;BME280;11027;51.030;13.812;2023-02-10T02:06:35;102008.22;;;-1.53;62.76
21730;BME280;11027;51.030;13.812;2023-02-10T02:09:01;102008.38;;;-1.58;62.95
21730;BME280;11027;51.030;13.812;2023-02-10T02:11:42;102009.44;;;-1.62;63.10
21730;BME280;11027;51.030;13.812;2023-02-10T02:14:29;102013.03;;;-1.63;62.98
21730;BME280;11027;51.030;13.812;2023-02-10T02:17:15;102005.94;;;-1.64;63.06
21730;BME280;11027;51.030;13.812;2023-02-10T02:20:16;102018.50;;;-1.66;63.25
21730;BME280;11027;51.030;13.812;2023-02-10T02:23:12;102016.63;;;-1.64;63.08
21730;BME280;11027;51.030;13.812;2023-02-10T02:28:56;102018.25;;;-1.60;63.29
21730;BME280;11027;51.030;13.812;2023-02-10T02:32:08;102018.25;;;-1.60;63.34
21730;BME280;11027;51.030;13.812;2023-02-10T02:34:55;102017.31;;;-1.57;63.35
21730;BME280;11027;51.030;13.812;2023-02-10T02:37:28;102016.53;;;-1.61;63.13
21730;BME280;11027;51.030;13.812;2023-02-10T02:39:54;102015.00;;;-1.68;63.22
21730;BME280;11027;51.030;13.812;2023-02-10T02:42:25;102006.94;;;-1.67;63.48
21730;BME280;11027;51.030;13.812;2023-02-10T02:44:56;102015.00;;;-1.68;63.26
21730;BME280;11027;51.030;13.812;2023-02-10T02:47:44;102013.16;;;-1.66;63.51
21730;BME280;11027;51.030;13.812;2023-02-10T02:55:19;102013.72;;;-1.82;63.82
21730;BME280;11027;51.030;13.812;2023-02-10T02:57:52;102018.31;;;-1.85;63.70
21730;BME280;11027;51.030;13.812;2023-02-10T03:00:24;102021.88;;;-1.86;63.65
21730;BME280;11027;51.030;13.812;2023-02-10T03:02:51;102015.69;;;-1.87;63.88
21730;BME280;11027;51.030;13.812;2023-02-10T03:05:23;102015.59;;;-1.84;63.96
21730;BME280;11027;51.030;13.812;2023-02-10T03:07:53;102018.09;;;-1.79;64.03
21730;BME280;11027;51.030;13.812;2023-02-10T03:10:19;102007.38;;;-1.79;63.79
21730;BME280;11027;51.030;13.812;2023-02-10T03:12:46;102012.78;;;-1.81;63.61
21730;BME280;11027;51.030;13.812;2023-02-10T03:15:11;102016.50;;;-1.85;63.85
21730;BME280;11027;51.030;13.812;2023-02-10T03:17:36;102017.31;;;-1.83;63.94
21730;BME280;11027;51.030;13.812;2023-02-10T03:20:02;102016.28;;;-1.78;64.11
21730;BME280;11027;51.030;13.812;2023-02-10T03:22:27;102031.28;;;-1.74;63.94
21730;BME280;11027;51.030;13.812;2023-02-10T03:24:53;102032.81;;;-1.67;63.85
21730;BME280;11027;51.030;13.812;2023-02-10T03:27:18;102020.25;;;-1.65;63.80
21730;BME280;11027;51.030;13.812;2023-02-10T03:29:43;102025.47;;;-1.62;63.87
21730;BME280;11027;51.030;13.812;2023-02-10T03:32:08;102023.50;;;-1.57;64.00
21730;BME280;11027;51.030;13.812;2023-02-10T03:34:34;102028.63;;;-1.51;63.93
21730;BME280;11027;51.030;13.812;2023-02-10T03:36:59;102022.22;;;-1.47;63.92
21730;BME280;11027;51.030;13.812;2023-02-10T03:39:25;102023.06;;;-1.45;63.69
21730;BME280;11027;51.030;13.812;2023-02-10T03:41:50;102015.84;;;-1.43;63.63
21730;BME280;11027;51.030;13.812;2023-02-10T03:44:15;102020.94;;;-1.36;63.80
21730;BME280;11027;51.030;13.812;2023-02-10T03:46:40;102027.06;;;-1.33;63.76
21730;BME280;11027;51.030;13.812;2023-02-10T03:49:06;102021.56;;;-1.30;63.79
21730;BME280;11027;51.030;13.812;2023-02-10T03:51:31;102020.53;;;-1.26;63.87
21730;BME280;11027;51.030;13.812;2023-02-10T03:53:57;102011.53;;;-1.23;63.93
21730;BME280;11027;51.030;13.812;2023-02-10T03:56:22;102017.75;;;-1.23;63.94
21730;BME280;11027;51.030;13.812;2023-02-10T03:58:47;102025.72;;;-1.21;63.90
21730;BME280;11027;51.030;13.812;2023-02-10T04:01:14;102023.72;;;-1.16;64.13
21730;BME280;11027;51.030;13.812;2023-02-10T04:03:41;102032.47;;;-1.11;64.15
21730;BME280;11027;51.030;13.812;2023-02-10T04:06:07;102028.59;;;-1.04;64.19
21730;BME280;11027;51.030;13.812;2023-02-10T04:08:32;102023.00;;;-0.97;64.09
21730;BME280;11027;51.030;13.812;2023-02-10T04:10:58;102019.25;;;-0.93;64.48
21730;BME280;11027;51.030;13.812;2023-02-10T04:13:23;102028.00;;;-0.88;64.46
21730;BME280;11027;51.030;13.812;2023-02-10T04:15:48;102031.34;;;-0.83;64.40
21730;BME280;11027;51.030;13.812;2023-02-10T04:18:14;102031.34;;;-0.83;64.44
21730;BME280;11027;51.030;13.812;2023-02-10T04:20:39;102037.41;;;-0.78;64.50
21730;BME280;11027;51.030;13.812;2023-02-10T04:23:04;102036.38;;;-0.75;64.66
21730;BME280;11027;51.030;13.812;2023-02-10T04:25:29;102049.59;;;-0.71;64.49
21730;BME280;11027;51.030;13.812;2023-02-10T04:27:55;102039.69;;;-0.69;64.45
21730;BME280;11027;51.030;13.812;2023-02-10T04:30:20;102037.81;;;-0.67;64.74
21730;BME280;11027;51.030;13.812;2023-02-10T04:32:45;102045.72;;;-0.64;64.80
21730;BME280;11027;51.030;13.812;2023-02-10T04:35:11;102043.16;;;-0.67;64.77
21730;BME280;11027;51.030;13.812;2023-02-10T04:37:36;102043.06;;;-0.64;64.83
21730;BME280;11027;51.030;13.812;2023-02-10T04:40:01;102050.91;;;-0.59;64.71
21730;BME280;11027;51.030;13.812;2023-02-10T04:42:27;102065.03;;;-0.55;64.76
21730;BME280;11027;51.030;13.812;2023-02-10T04:44:55;102067.47;;;-0.49;64.38
21730;BME280;11027;51.030;13.812;2023-02-10T04:47:21;102071.75;;;-0.45;64.24
21730;BME280;11027;51.030;13.812;2023-02-10T04:49:46;102076.84;;;-0.39;64.14
21730;BME280;11027;51.030;13.812;2023-02-10T04:52:12;102077.66;;;-0.37;64.16
21730;BME280;11027;51.030;13.812;2023-02-10T04:54:38;102081.41;;;-0.41;64.37
21730;BME280;11027;51.030;13.812;2023-02-10T04:57:03;102089.34;;;-0.38;64.47
21730;BME280;11027;51.030;13.812;2023-02-10T04:59:28;102084.78;;;-0.36;64.72
21730;BME280;11027;51.030;13.812;2023-02-10T05:01:53;102079.53;;;-0.39;64.51
21730;BME280;11027;51.030;13.812;2023-02-10T05:04:19;102094.84;;;-0.43;64.61
21730;BME280;11027;51.030;13.812;2023-02-10T05:06:44;102086.66;;;-0.38;64.66
21730;BME280;11027;51.030;13.812;2023-02-10T05:09:09;102099.84;;;-0.33;64.65
21730;BME280;11027;51.030;13.812;2023-02-10T05:11:35;102102.31;;;-0.29;64.72
21730;BME280;11027;51.030;13.812;2023-02-10T05:14:00;102094.97;;;-0.24;64.59
21730;BME280;11027;51.030;13.812;2023-02-10T05:16:25;102107.31;;;-0.19;64.47
21730;BME280;11027;51.030;13.812;2023-02-10T05:18:50;102105.28;;;-0.14;64.66
21730;BME280;11027;51.030;13.812;2023-02-10T05:21:16;102105.28;;;-0.14;65.24
21730;BME280;11027;51.030;13.812;2023-02-10T05:23:41;102120.31;;;-0.10;65.18
21730;BME280;11027;51.030;13.812;2023-02-10T05:26:07;102110.53;;;-0.11;66.02
21730;BME280;11027;51.030;13.812;2023-02-10T05:28:32;102109.69;;;-0.12;66.46
21730;BME280;11027;51.030;13.812;2023-02-10T05:30:58;102106.19;;;-0.14;66.86
21730;BME280;11027;51.030;13.812;2023-02-10T05:33:23;102110.53;;;-0.11;66.86
21730;BME280;11027;51.030;13.812;2023-02-10T05:35:48;102112.16;;;-0.07;67.19
21730;BME280;11027;51.030;13.812;2023-02-10T05:38:13;102109.28;;;-0.03;67.25
21730;BME280;11027;51.030;13.812;2023-02-10T05:40:39;102108.16;;;0.03;67.45
21730;BME280;11027;51.030;13.812;2023-02-10T05:43:04;102102.53;;;0.09;67.33
21730;BME280;11027;51.030;13.812;2023-02-10T05:45:29;102105.00;;;0.14;67.52
21730;BME280;11027;51.030;13.812;2023-02-10T05:47:55;102104.28;;;0.10;67.96
21730;BME280;11027;51.030;13.812;2023-02-10T05:50:20;102117.75;;;0.09;68.23
21730;BME280;11027;51.030;13.812;2023-02-10T05:52:45;102116.72;;;0.11;68.63
21730;BME280;11027;51.030;13.812;2023-02-10T05:55:11;102105.91;;;0.14;68.62
21730;BME280;11027;51.030;13.812;2023-02-10T05:57:36;102108.38;;;0.19;68.77
21730;BME280;11027;51.030;13.812;2023-02-10T06:00:03;102111.00;;;0.21;68.83
21730;BME280;11027;51.030;13.812;2023-02-10T06:02:29;102131.44;;;0.23;68.74
21730;BME280;11027;51.030;13.812;2023-02-10T06:04:54;102132.28;;;0.24;68.90
21730;BME280;11027;51.030;13.812;2023-02-10T06:07:20;102133.16;;;0.24;69.15
21730;BME280;11027;51.030;13.812;2023-02-10T06:09:45;102137.66;;;0.24;69.12
21730;BME280;11027;51.030;13.812;2023-02-10T06:12:10;102134.44;;;0.15;69.52
21730;BME280;11027;51.030;13.812;2023-02-10T06:14:35;102126.59;;;0.11;69.75
21730;BME280;11027;51.030;13.812;2023-02-10T06:17:03;102131.34;;;0.04;70.13
21730;BME280;11027;51.030;13.812;2023-02-10T06:19:29;102144.06;;;-0.01;70.12
21730;BME280;11027;51.030;13.812;2023-02-10T06:21:54;102142.28;;;-0.02;70.25
21730;BME280;11027;51.030;13.812;2023-02-10T06:24:19;102143.19;;;-0.02;70.30
21730;BME280;11027;51.030;13.812;2023-02-10T06:26:44;102141.44;;;-0.03;70.62
21730;BME280;11027;51.030;13.812;2023-02-10T06:29:10;102145.81;;;0.00;70.54
21730;BME280;11027;51.030;13.812;2023-02-10T06:31:35;102151.28;;;-0.03;70.48
21730;BME280;11027;51.030;13.812;2023-02-10T06:34:00;102156.66;;;-0.03;70.76
21730;BME280;11027;51.030;13.812;2023-02-10T06:36:28;102154.09;;;-0.06;70.81
21730;BME280;11027;51.030;13.812;2023-02-10T06:38:53;102154.34;;;-0.12;70.75
21730;BME280;11027;51.030;13.812;2023-02-10T06:41:19;102166.13;;;-0.16;71.07
21730;BME280;11027;51.030;13.812;2023-02-10T06:43:44;102170.66;;;-0.18;71.32
21730;BME280;11027;51.030;13.812;2023-02-10T06:46:09;102173.25;;;-0.15;71.17
21730;BME280;11027;51.030;13.812;2023-02-10T06:48:35;102174.97;;;-0.14;71.26
21730;BME280;11027;51.030;13.812;2023-02-10T06:51:01;102171.38;;;-0.13;71.16
21730;BME280;11027;51.030;13.812;2023-02-10T06:53:29;102173.09;;;-0.12;71.13
21730;BME280;11027;51.030;13.812;2023-02-10T06:55:56;102180.22;;;-0.11;71.32
21730;BME280;11027;51.030;13.812;2023-02-10T06:58:22;102177.34;;;-0.07;71.12
21730;BME280;11027;51.030;13.812;2023-02-10T07:00:47;102182.34;;;0.03;71.16
21730;BME280;11027;51.030;13.812;2023-02-10T07:03:13;102190.78;;;0.14;70.74
21730;BME280;11027;51.030;13.812;2023-02-10T07:05:41;102192.34;;;0.19;70.58
21730;BME280;11027;51.030;13.812;2023-02-10T07:08:07;102191.53;;;0.17;70.38
21730;BME280;11027;51.030;13.812;2023-02-10T07:10:33;102197.03;;;0.14;70.35
21730;BME280;11027;51.030;13.812;2023-02-10T07:12:58;102196.91;;;0.17;70.24
21730;BME280;11027;51.030;13.812;2023-02-10T07:15:24;102201.19;;;0.22;70.27
21730;BME280;11027;51.030;13.812;2023-02-10T07:17:50;102192.78;;;0.31;70.13
21730;BME280;11027;51.030;13.812;2023-02-10T07:20:17;102196.06;;;0.37;69.79
21730;BME280;11027;51.030;13.812;2023-02-10T07:22:43;102197.66;;;0.42;69.63
21730;BME280;11027;51.030;13.812;2023-02-10T07:25:08;102196.59;;;0.46;69.51
21730;BME280;11027;51.030;13.812;2023-02-10T07:27:34;102199.22;;;0.47;69.51
21730;BME280;11027;51.030;13.812;2023-02-10T07:29:59;102206.47;;;0.45;69.48
21730;BME280;11027;51.030;13.812;2023-02-10T07:32:24;102212.75;;;0.44;69.44
21730;BME280;11027;51.030;13.812;2023-02-10T07:34:49;102220.69;;;0.47;69.39
21730;BME280;11027;51.030;13.812;2023-02-10T07:37:16;102201.09;;;0.45;69.24
21730;BME280;11027;51.030;13.812;2023-02-10T07:39:41;102195.84;;;0.42;69.45
21730;BME280;11027;51.030;13.812;2023-02-10T07:42:06;102195.19;;;0.37;69.67
21730;BME280;11027;51.030;13.812;2023-02-10T07:44:32;102196.13;;;0.36;69.71
21730;BME280;11027;51.030;13.812;2023-02-10T07:46:57;102202.28;;;0.38;69.59
21730;BME280;11027;51.030;13.812;2023-02-10T07:49:22;102201.22;;;0.42;69.62
21730;BME280;11027;51.030;13.812;2023-02-10T07:51:49;102207.22;;;0.49;69.74
21730;BME280;11027;51.030;13.812;2023-02-10T07:54:14;102209.53;;;0.56;69.59
21730;BME280;11027;51.030;13.812;2023-02-10T07:56:40;102203.78;;;0.66;69.54
21730;BME280;11027;51.030;13.812;2023-02-10T07:59:05;102198.03;;;0.75;69.46
21730;BME280;11027;51.030;13.812;2023-02-10T08:01:32;102205.19;;;0.74;69.39
21730;BME280;11027;51.030;13.812;2023-02-10T08:03:59;102203.66;;;0.69;69.24
21730;BME280;11027;51.030;13.812;2023-02-10T08:06:25;102216.19;;;0.68;69.26
21730;BME280;11027;51.030;13.812;2023-02-10T08:08:51;102209.16;;;0.66;69.48
21730;BME280;11027;51.030;13.812;2023-02-10T08:11:17;102208.03;;;0.71;69.44
21730;BME280;11027;51.030;13.812;2023-02-10T08:13:43;102212.25;;;0.77;69.63
21730;BME280;11027;51.030;13.812;2023-02-10T08:16:09;102218.00;;;0.88;69.50
21730;BME280;11027;51.030;13.812;2023-02-10T08:18:37;102225.50;;;1.00;69.19
21730;BME280;11027;51.030;13.812;2023-02-10T08:21:02;102220.59;;;1.10;69.04
21730;BME280;11027;51.030;13.812;2023-02-10T08:23:29;102222.72;;;1.23;68.92
21730;BME280;11027;51.030;13.812;2023-02-10T08:25:54;102218.78;;;1.31;68.74
21730;BME280;11027;51.030;13.812;2023-02-10T08:28:19;102214.84;;;1.38;68.59
21730;BME280;11027;51.030;13.812;2023-02-10T08:30:44;102204.03;;;1.40;68.46
21730;BME280;11027;51.030;13.812;2023-02-10T08:33:10;102209.47;;;1.38;68.66
21730;BME280;11027;51.030;13.812;2023-02-10T08:35:37;102212.81;;;1.44;68.59
21730;BME280;11027;51.030;13.812;2023-02-10T08:38:03;102210.78;;;1.49;68.30
21730;BME280;11027;51.030;13.812;2023-02-10T08:40:28;102222.19;;;1.54;68.20
21730;BME280;11027;51.030;13.812;2023-02-10T08:42:53;102229.88;;;1.62;68.21
21730;BME280;11027;51.030;13.812;2023-02-10T08:45:19;102223.34;;;1.67;68.24
21730;BME280;11027;51.030;13.812;2023-02-10T08:47:44;102212.28;;;1.73;68.26
21730;BME280;11027;51.030;13.812;2023-02-10T08:50:09;102224.50;;;1.80;68.03
21730;BME280;11027;51.030;13.812;2023-02-10T08:52:35;102222.31;;;1.89;67.89
21730;BME280;11027;51.030;13.812;2023-02-10T08:55:00;102228.31;;;1.94;67.81
21730;BME280;11027;51.030;13.812;2023-02-10T08:57:27;102231.69;;;1.99;67.73
21730;BME280;11027;51.030;13.812;2023-02-10T08:59:52;102243.16;;;2.03;67.71
21730;BME280;11027;51.030;13.812;2023-02-10T09:02:17;102254.66;;;2.06;67.56
21730;BME280;11027;51.030;13.812;2023-02-10T09:04:43;102247.38;;;2.08;67.42
21730;BME280;11027;51.030;13.812;2023-02-10T09:07:08;102241.84;;;2.11;67.23
21730;BME280;11027;51.030;13.812;2023-02-10T09:09:40;102244.38;;;2.14;67.46
21730;BME280;11027;51.030;13.812;2023-02-10T09:12:07;102254.97;;;2.17;67.39
21730;BME280;11027;51.030;13.812;2023-02-10T09:14:34;102252.28;;;2.17;67.29
21730;BME280;11027;51.030;13.812;2023-02-10T09:17:00;102256.69;;;2.01;68.49
21730;BME280;11027;51.030;13.812;2023-02-10T09:19:25;102270.34;;;1.77;70.10
21730;BME280;11027;51.030;13.812;2023-02-10T09:21:50;102259.22;;;1.66;71.66
21730;BME280;11027;51.030;13.812;2023-02-10T09:24:16;102265.81;;;1.59;72.85
21730;BME280;11027;51.030;13.812;2023-02-10T09:26:42;102255.25;;;1.56;73.23
21730;BME280;11027;51.030;13.812;2023-02-10T09:29:08;102270.78;;;1.68;73.30
21730;BME280;11027;51.030;13.812;2023-02-10T09:31:35;102262.72;;;1.68;73.93
21730;BME280;11027;51.030;13.812;2023-02-10T09:34:01;102272.09;;;1.78;73.69
21730;BME280;11027;51.030;13.812;2023-02-10T09:36:26;102266.56;;;1.82;73.63
21730;BME280;11027;51.030;13.812;2023-02-10T09:38:51;102274.63;;;1.82;73.76
21730;BME280;11027;51.030;13.812;2023-02-10T09:41:34;102270.03;;;1.84;73.39
21730;BME280;11027;51.030;13.812;2023-02-10T09:44:26;102263.38;;;1.92;73.50
21730;BME280;11027;51.030;13.812;2023-02-10T09:55:15;102254.34;;;2.12;73.00
21730;BME280;11027;51.030;13.812;2023-02-10T09:57:44;102257.84;;;2.14;72.93
21730;BME280;11027;51.030;13.812;2023-02-10T10:00:37;102250.38;;;2.19;72.88
21730;BME280;11027;51.030;13.812;2023-02-10T10:03:07;102262.25;;;2.15;72.99
21730;BME280;11027;51.030;13.812;2023-02-10T10:08:24;102264.81;;;2.18;73.28
21730;BME280;11027;51.030;13.812;2023-02-10T10:10:56;102257.66;;;2.17;73.25
21730;BME280;11027;51.030;13.812;2023-02-10T10:13:27;102258.47;;;2.19;73.34
21730;BME280;11027;51.030;13.812;2023-02-10T10:16:21;102257.06;;;2.30;73.25
21730;BME280;11027;51.030;13.812;2023-02-10T10:21:30;102259.44;;;2.36;72.77
21730;BME280;11027;51.030;13.812;2023-02-10T10:27:12;102249.88;;;2.48;72.76
21730;BME280;11027;51.030;13.812;2023-02-10T10:29:54;102256.47;;;2.59;72.51
21730;BME280;11027;51.030;13.812;2023-02-10T10:32:41;102266.91;;;2.48;72.60
21730;BME280;11027;51.030;13.812;2023-02-10T10:35:17;102273.78;;;2.36;73.35
21730;BME280;11027;51.030;13.812;2023-02-10T10:37:45;102256.84;;;2.34;73.67
21730;BME280;11027;51.030;13.812;2023-02-10T10:40:17;102251.06;;;2.42;73.70
21730;BME280;11027;51.030;13.812;2023-02-10T10:42:46;102244.69;;;2.45;73.79
21730;BME280;11027;51.030;13.812;2023-02-10T10:45:20;102251.53;;;2.50;73.39
21730;BME280;11027;51.030;13.812;2023-02-10T10:47:51;102251.66;;;2.49;73.61
21730;BME280;11027;51.030;13.812;2023-02-10T10:50:20;102250.19;;;2.42;73.64
21730;BME280;11027;51.030;13.812;2023-02-10T10:52:48;102245.69;;;2.42;74.06
21730;BME280;11027;51.030;13.812;2023-02-10T10:55:24;102243.66;;;2.47;73.95
21730;BME280;11027;51.030;13.812;2023-02-10T10:57:52;102251.84;;;2.44;73.79
21730;BME280;11027;51.030;13.812;2023-02-10T11:00:25;102248.38;;;2.42;73.76
21730;BME280;11027;51.030;13.812;2023-02-10T11:02:59;102247.38;;;2.45;73.85
21730;BME280;11027;51.030;13.812;2023-02-10T11:05:36;102254.25;;;2.50;73.70
21730;BME280;11027;51.030;13.812;2023-02-10T11:08:04;102264.13;;;2.50;73.51
21730;BME280;11027;51.030;13.812;2023-02-10T11:10:47;102259.78;;;2.47;73.79
21730;BME280;11027;51.030;13.812;2023-02-10T11:13:24;102259.56;;;2.52;73.67
21730;BME280;11027;51.030;13.812;2023-02-10T11:18:29;102255.56;;;2.42;73.75
21730;BME280;11027;51.030;13.812;2023-02-10T11:21:02;102258.34;;;2.40;73.87
21730;BME280;11027;51.030;13.812;2023-02-10T11:23:28;102260.91;;;2.43;73.92
21730;BME280;11027;51.030;13.812;2023-02-10T11:26:03;102262.56;;;2.46;73.83
21730;BME280;11027;51.030;13.812;2023-02-10T11:28:31;102273.88;;;2.52;73.89
21730;BME280;11027;51.030;13.812;2023-02-10T11:31:01;102270.47;;;2.49;73.93
21730;BME280;11027;51.030;13.812;2023-02-10T11:33:31;102261.63;;;2.47;73.76
21730;BME280;11027;51.030;13.812;2023-02-10T11:36:08;102275.75;;;2.50;73.96
21730;BME280;11027;51.030;13.812;2023-02-10T11:38:44;102269.59;;;2.48;74.04
21730;BME280;11027;51.030;13.812;2023-02-10T11:41:09;102260.59;;;2.49;74.04
21730;BME280;11027;51.030;13.812;2023-02-10T11:43:46;102264.63;;;2.58;74.07
21730;BME280;11027;51.030;13.812;2023-02-10T11:46:26;102258.13;;;2.62;73.83
21730;BME280;11027;51.030;13.812;2023-02-10T11:49:03;102264.41;;;2.63;73.64
21730;BME280;11027;51.030;13.812;2023-02-10T11:51:30;102271.66;;;2.60;73.35
21730;BME280;11027;51.030;13.812;2023-02-10T11:53:57;102262.66;;;2.62;73.11
21730;BME280;11027;51.030;13.812;2023-02-10T11:56:27;102257.91;;;2.67;72.73
21730;BME280;11027;51.030;13.812;2023-02-10T11:59:25;102267.59;;;2.71;72.64
21730;BME280;11027;51.030;13.812;2023-02-10T12:10:15;102255.53;;;2.78;71.89
21730;BME280;11027;51.030;13.812;2023-02-10T12:16:15;102261.22;;;2.72;72.16
21730;BME280;11027;51.030;13.812;2023-02-10T12:19:08;102256.97;;;2.85;72.17
21730;BME280;11027;51.030;13.812;2023-02-10T12:21:45;102250.75;;;3.00;71.88
21730;BME280;11027;51.030;13.812;2023-02-10T12:24:38;102243.28;;;3.23;71.50
21730;BME280;11027;51.030;13.812;2023-02-10T12:38:23;102240.63;;;4.04;69.02
21730;BME280;11027;51.030;13.812;2023-02-10T12:41:15;102247.03;;;4.17;68.59
21730;BME280;11027;51.030;13.812;2023-02-10T12:46:49;102236.75;;;4.24;67.84
21730;BME280;11027;51.030;13.812;2023-02-10T12:52:06;102224.38;;;4.36;67.70
21730;BME280;11027;51.030;13.812;2023-02-10T12:57:05;102213.19;;;4.58;66.81
21730;BME280;11027;51.030;13.812;2023-02-10T13:02:44;102207.59;;;4.61;66.11
21730;BME280;11027;51.030;13.812;2023-02-10T13:05:24;102214.41;;;4.52;65.80
21730;BME280;11027;51.030;13.812;2023-02-10T13:07:59;102203.03;;;4.47;66.08
21730;BME280;11027;51.030;13.812;2023-02-10T13:10:35;102199.97;;;4.53;66.20
21730;BME280;11027;51.030;13.812;2023-02-10T13:13:07;102190.53;;;4.60;66.45
21730;BME280;11027;51.030;13.812;2023-02-10T13:15:41;102194.69;;;4.66;65.86
21730;BME280;11027;51.030;13.812;2023-02-10T13:18:24;102192.66;;;4.70;65.46
21730;BME280;11027;51.030;13.812;2023-02-10T13:23:44;102189.22;;;4.82;65.12
21730;BME280;11027;51.030;13.812;2023-02-10T13:28:48;102179.41;;;4.95;64.87
21730;BME280;11027;51.030;13.812;2023-02-10T13:31:30;102175.16;;;4.91;64.67
21730;BME280;11027;51.030;13.812;2023-02-10T13:34:14;102173.41;;;5.05;64.89
21730;BME280;11027;51.030;13.812;2023-02-10T13:36:41;102172.25;;;5.23;64.66
21730;BME280;11027;51.030;13.812;2023-02-10T13:39:19;102173.81;;;5.41;63.91
21730;BME280;11027;51.030;13.812;2023-02-10T13:41:46;102165.13;;;5.36;63.35
21730;BME280;11027;51.030;13.812;2023-02-10T13:44:29;102167.25;;;5.46;63.42
21730;BME280;11027;51.030;13.812;2023-02-10T13:47:08;102159.22;;;5.86;62.95
21730;BME280;11027;51.030;13.812;2023-02-10T13:49:38;102159.78;;;5.91;62.08
21730;BME280;11027;51.030;13.812;2023-02-10T13:52:16;102155.56;;;5.87;61.74
21730;BME280;11027;51.030;13.812;2023-02-10T13:55:03;102164.88;;;5.68;61.60
21730;BME280;11027;51.030;13.812;2023-02-10T13:57:33;102167.31;;;5.58;61.97
21730;BME280;11027;51.030;13.812;2023-02-10T14:00:15;102159.34;;;5.28;62.73
21730;BME280;11027;51.030;13.812;2023-02-10T14:02:40;102163.59;;;5.18;63.15
21730;BME280;11027;51.030;13.812;2023-02-10T14:05:22;102156.03;;;5.23;63.28